sensor_id;sensor_type;location;lat;lon;timestamp;temperature;humidity
65584;DHT22;62116;43.582;1.470;2023-02-28T00:00:16;3.89;60.12
65584;DHT22;62116;43.582;1.470;2023-02-28T00:02:43;3.89;59.85
65584;DHT22;62116;43.582;1.470;2023-02-28T00:05:10;3.90;60.13
65584;DHT22;62116;43.582;1.470;2023-02-28T00:07:36;3.89;60.42
65584;DHT22;62116;43.582;1.470;2023-02-28T00:10:04;3.87;59.76
65584;DHT22;62116;43.582;1.470;2023-02-28T00:12:29;3.87;59.86
65584;DHT22;62116;43.582;1.470;2023-02-28T00:14:55;3.82;59.79
65584;DHT22;62116;43.582;1.470;2023-02-28T00:17:20;3.86;59.99
65584;DHT22;62116;43.582;1.470;2023-02-28T00:19:49;3.82;59.83
65584;DHT22;62116;43.582;1.470;2023-02-28T00:22:16;3.86;60.24
65584;DHT22;62116;43.582;1.470;2023-02-28T00:24:42;3.82;60.35
65584;DHT22;62116;43.582;1.470;2023-02-28T00:27:08;3.87;60.16
65584;DHT22;62116;43.582;1.470;2023-02-28T00:29:33;3.82;59.98
65584;DHT22;62116;43.582;1.470;2023-02-28T00:31:58;3.85;60.06
65584;DHT22;62116;43.582;1.470;2023-02-28T00:34:24;3.82;59.92
65584;DHT22;62116;43.582;1.470;2023-02-28T00:36:49;3.81;60.09
65584;DHT22;62116;43.582;1.470;2023-02-28T00:39:15;3.83;60.42
65584;DHT22;62116;43.582;1.470;2023-02-28T00:41:41;3.82;60.25
65584;DHT22;62116;43.582;1.470;2023-02-28T00:44:06;3.82;60.11
65584;DHT22;62116;43.582;1.470;2023-02-28T00:46:32;3.78;60.38
65584;DHT22;62116;43.582;1.470;2023-02-28T00:48:57;3.79;60.09
65584;DHT22;62116;43.582;1.470;2023-02-28T00:51:23;3.79;60.27
65584;DHT22;62116;43.582;1.470;2023-02-28T00:53:48;3.75;60.28
65584;DHT22;62116;43.582;1.470;2023-02-28T00:56:14;3.76;60.36
65584;DHT22;62116;43.582;1.470;2023-02-28T00:58:39;3.76;59.93
65584;DHT22;62116;43.582;1.470;2023-02-28T01:01:05;3.74;60.06
65584;DHT22;62116;43.582;1.470;2023-02-28T01:03:31;3.74;60.16
65584;DHT22;62116;43.582;1.470;2023-02-28T01:05:56;3.69;60.55
65584;DHT22;62116;43.582;1.470;2023-02-28T01:08:22;3.72;60.58
65584;DHT22;62116;43.582;1.470;2023-02-28T01:10:48;3.66;60.59
65584;DHT22;62116;43.582;1.470;2023-02-28T01:13:14;3.66;60.58
65584;DHT22;62116;43.582;1.470;2023-02-28T01:15:48;3.68;60.47
65584;DHT22;62116;43.582;1.470;2023-02-28T01:18:14;3.65;60.44
65584;DHT22;62116;43.582;1.470;2023-02-28T01:20:39;3.64;60.67
65584;DHT22;62116;43.582;1.470;2023-02-28T01:23:05;3.64;61.01
65584;DHT22;62116;43.582;1.470;2023-02-28T01:25:30;3.65;61.35
65584;DHT22;62116;43.582;1.470;2023-02-28T01:27:56;3.65;61.14
65584;DHT22;62116;43.582;1.470;2023-02-28T01:30:21;3.62;61.49
65584;DHT22;62116;43.582;1.470;2023-02-28T01:32:47;3.61;61.48
65584;DHT22;62116;43.582;1.470;2023-02-28T01:35:12;3.62;61.89
65584;DHT22;62116;43.582;1.470;2023-02-28T01:37:38;3.62;61.95
65584;DHT22;62116;43.582;1.470;2023-02-28T01:40:04;3.66;61.39
65584;DHT22;62116;43.582;1.470;2023-02-28T01:42:29;3.62;60.87
65584;DHT22;62116;43.582;1.470;2023-02-28T01:45:14;3.61;61.33
65584;DHT22;62116;43.582;1.470;2023-02-28T01:47:43;3.64;61.35
65584;DHT22;62116;43.582;1.470;2023-02-28T01:50:14;3.64;60.98
65584;DHT22;62116;43.582;1.470;2023-02-28T01:52:41;3.64;61.09
65584;DHT22;62116;43.582;1.470;2023-02-28T01:55:08;3.61;61.31
65584;DHT22;62116;43.582;1.470;2023-02-28T01:57:38;3.56;61.52
65584;DHT22;62116;43.582;1.470;2023-02-28T02:00:10;3.55;61.78
65584;DHT22;62116;43.582;1.470;2023-02-28T02:02:38;3.54;61.37
65584;DHT22;62116;43.582;1.470;2023-02-28T02:05:11;3.55;61.42
65584;DHT22;62116;43.582;1.470;2023-02-28T02:07:43;3.56;61.68
65584;DHT22;62116;43.582;1.470;2023-02-28T02:10:18;3.59;61.63
65584;DHT22;62116;43.582;1.470;2023-02-28T02:15:26;3.64;61.83
65584;DHT22;62116;43.582;1.470;2023-02-28T02:17:57;3.61;61.54
65584;DHT22;62116;43.582;1.470;2023-02-28T02:37:06;3.59;61.74
65584;DHT22;62116;43.582;1.470;2023-02-28T02:39:50;3.56;61.69
65584;DHT22;62116;43.582;1.470;2023-02-28T02:42:27;3.55;61.56
65584;DHT22;62116;43.582;1.470;2023-02-28T02:45:01;3.56;61.68
65584;DHT22;62116;43.582;1.470;2023-02-28T02:47:30;3.56;61.90
65584;DHT22;62116;43.582;1.470;2023-02-28T02:49:59;3.55;61.82
65584;DHT22;62116;43.582;1.470;2023-02-28T02:52:36;3.56;62.12
65584;DHT22;62116;43.582;1.470;2023-02-28T02:55:05;3.55;62.22
65584;DHT22;62116;43.582;1.470;2023-02-28T02:57:38;3.59;62.10
65584;DHT22;62116;43.582;1.470;2023-02-28T03:00:06;3.58;61.96
65584;DHT22;62116;43.582;1.470;2023-02-28T03:02:36;3.58;62.17
65584;DHT22;62116;43.582;1.470;2023-02-28T03:05:08;3.58;62.05
65584;DHT22;62116;43.582;1.470;2023-02-28T03:07:37;3.59;62.02
65584;DHT22;62116;43.582;1.470;2023-02-28T03:10:02;3.61;61.98
65584;DHT22;62116;43.582;1.470;2023-02-28T03:12:40;3.61;62.12
65584;DHT22;62116;43.582;1.470;2023-02-28T03:15:23;3.61;62.44
65584;DHT22;62116;43.582;1.470;2023-02-28T03:18:03;3.58;62.61
65584;DHT22;62116;43.582;1.470;2023-02-28T03:20:46;3.58;62.08
65584;DHT22;62116;43.582;1.470;2023-02-28T03:23:19;3.59;62.53
65584;DHT22;62116;43.582;1.470;2023-02-28T03:26:11;3.54;62.53
65584;DHT22;62116;43.582;1.470;2023-02-28T03:28:53;3.58;62.53
65584;DHT22;62116;43.582;1.470;2023-02-28T03:31:48;3.62;62.61
65584;DHT22;62116;43.582;1.470;2023-02-28T03:34:30;3.59;62.58
65584;DHT22;62116;43.582;1.470;2023-02-28T03:37:04;3.56;62.35
65584;DHT22;62116;43.582;1.470;2023-02-28T03:39:37;3.56;62.61
65584;DHT22;62116;43.582;1.470;2023-02-28T03:42:08;3.52;62.72
65584;DHT22;62116;43.582;1.470;2023-02-28T03:44:48;3.55;62.62
65584;DHT22;62116;43.582;1.470;2023-02-28T03:47:28;3.51;62.54
65584;DHT22;62116;43.582;1.470;2023-02-28T03:49:56;3.51;62.55
65584;DHT22;62116;43.582;1.470;2023-02-28T03:52:25;3.51;62.96
65584;DHT22;62116;43.582;1.470;2023-02-28T03:54:55;3.50;62.81
65584;DHT22;62116;43.582;1.470;2023-02-28T04:00:35;3.50;62.82
65584;DHT22;62116;43.582;1.470;2023-02-28T04:03:03;3.54;62.72
65584;DHT22;62116;43.582;1.470;2023-02-28T04:05:29;3.50;62.65
65584;DHT22;62116;43.582;1.470;2023-02-28T04:08:04;3.51;62.78
65584;DHT22;62116;43.582;1.470;2023-02-28T04:10:30;3.55;63.01
65584;DHT22;62116;43.582;1.470;2023-02-28T04:12:55;3.55;62.51
65584;DHT22;62116;43.582;1.470;2023-02-28T04:15:21;3.55;62.60
65584;DHT22;62116;43.582;1.470;2023-02-28T04:17:48;3.52;62.57
65584;DHT22;62116;43.582;1.470;2023-02-28T04:20:13;3.50;62.97
65584;DHT22;62116;43.582;1.470;2023-02-28T04:22:38;3.51;62.96
65584;DHT22;62116;43.582;1.470;2023-02-28T04:25:04;3.55;63.06
65584;DHT22;62116;43.582;1.470;2023-02-28T04:27:30;3.52;62.95
65584;DHT22;62116;43.582;1.470;2023-02-28T04:29:56;3.48;63.07
65584;DHT22;62116;43.582;1.470;2023-02-28T04:32:21;3.51;63.16
65584;DHT22;62116;43.582;1.470;2023-02-28T04:34:46;3.50;63.32
65584;DHT22;62116;43.582;1.470;2023-02-28T04:37:12;3.46;63.33
65584;DHT22;62116;43.582;1.470;2023-02-28T04:39:37;3.51;63.22
65584;DHT22;62116;43.582;1.470;2023-02-28T04:42:04;3.52;63.39
65584;DHT22;62116;43.582;1.470;2023-02-28T04:44:29;3.52;63.29
65584;DHT22;62116;43.582;1.470;2023-02-28T04:46:55;3.50;63.37
65584;DHT22;62116;43.582;1.470;2023-02-28T04:49:20;3.50;63.27
65584;DHT22;62116;43.582;1.470;2023-02-28T04:51:45;3.51;63.29
65584;DHT22;62116;43.582;1.470;2023-02-28T04:54:11;3.45;63.41
65584;DHT22;62116;43.582;1.470;2023-02-28T04:56:38;3.44;63.30
65584;DHT22;62116;43.582;1.470;2023-02-28T04:59:03;3.39;63.41
65584;DHT22;62116;43.582;1.470;2023-02-28T05:01:31;3.41;63.41
65584;DHT22;62116;43.582;1.470;2023-02-28T05:03:59;3.39;63.91
65584;DHT22;62116;43.582;1.470;2023-02-28T05:06:27;3.35;63.87
65584;DHT22;62116;43.582;1.470;2023-02-28T05:08:53;3.32;63.85
65584;DHT22;62116;43.582;1.470;2023-02-28T05:11:21;3.32;63.87
65584;DHT22;62116;43.582;1.470;2023-02-28T05:13:47;3.24;63.97
65584;DHT22;62116;43.582;1.470;2023-02-28T05:16:13;3.25;64.34
65584;DHT22;62116;43.582;1.470;2023-02-28T05:18:39;3.20;64.33
65584;DHT22;62116;43.582;1.470;2023-02-28T05:21:05;3.15;64.61
65584;DHT22;62116;43.582;1.470;2023-02-28T05:23:30;3.12;64.64
65584;DHT22;62116;43.582;1.470;2023-02-28T05:25:56;3.08;64.79
65584;DHT22;62116;43.582;1.470;2023-02-28T05:28:22;3.07;64.97
65584;DHT22;62116;43.582;1.470;2023-02-28T05:30:48;3.08;64.90
65584;DHT22;62116;43.582;1.470;2023-02-28T05:33:14;3.04;65.25
65584;DHT22;62116;43.582;1.470;2023-02-28T05:35:41;3.01;65.11
65584;DHT22;62116;43.582;1.470;2023-02-28T05:38:08;3.01;65.31
65584;DHT22;62116;43.582;1.470;2023-02-28T05:40:33;2.97;65.52
65584;DHT22;62116;43.582;1.470;2023-02-28T05:42:59;2.94;65.55
65584;DHT22;62116;43.582;1.470;2023-02-28T05:45:24;2.90;65.66
65584;DHT22;62116;43.582;1.470;2023-02-28T05:47:53;2.93;65.52
65584;DHT22;62116;43.582;1.470;2023-02-28T05:50:18;2.84;65.75
65584;DHT22;62116;43.582;1.470;2023-02-28T05:52:44;2.80;65.86
65584;DHT22;62116;43.582;1.470;2023-02-28T05:55:09;2.77;66.00
65584;DHT22;62116;43.582;1.470;2023-02-28T05:57:34;2.76;66.14
65584;DHT22;62116;43.582;1.470;2023-02-28T06:00:00;2.76;66.13
65584;DHT22;62116;43.582;1.470;2023-02-28T06:02:25;2.75;66.12
65584;DHT22;62116;43.582;1.470;2023-02-28T06:04:51;2.77;66.04
65584;DHT22;62116;43.582;1.470;2023-02-28T06:07:16;2.75;66.24
65584;DHT22;62116;43.582;1.470;2023-02-28T06:09:42;2.68;66.22
65584;DHT22;62116;43.582;1.470;2023-02-28T06:12:09;2.64;66.58
65584;DHT22;62116;43.582;1.470;2023-02-28T06:14:35;2.60;66.55
65584;DHT22;62116;43.582;1.470;2023-02-28T06:17:02;2.53;66.81
65584;DHT22;62116;43.582;1.470;2023-02-28T06:19:28;2.54;66.84
65584;DHT22;62116;43.582;1.470;2023-02-28T06:21:56;2.56;66.94
65584;DHT22;62116;43.582;1.470;2023-02-28T06:24:23;2.53;67.01
65584;DHT22;62116;43.582;1.470;2023-02-28T06:26:49;2.54;67.21
65584;DHT22;62116;43.582;1.470;2023-02-28T06:29:18;2.58;67.16
65584;DHT22;62116;43.582;1.470;2023-02-28T06:31:47;2.58;67.02
65584;DHT22;62116;43.582;1.470;2023-02-28T06:34:13;2.57;66.94
65584;DHT22;62116;43.582;1.470;2023-02-28T06:36:40;2.60;66.81
65584;DHT22;62116;43.582;1.470;2023-02-28T06:39:06;2.60;67.00
65584;DHT22;62116;43.582;1.470;2023-02-28T06:41:32;2.57;67.07
65584;DHT22;62116;43.582;1.470;2023-02-28T06:44:08;2.61;67.13
65584;DHT22;62116;43.582;1.470;2023-02-28T06:46:36;2.58;67.13
65584;DHT22;62116;43.582;1.470;2023-02-28T06:49:02;2.61;67.16
65584;DHT22;62116;43.582;1.470;2023-02-28T06:51:27;2.70;66.93
65584;DHT22;62116;43.582;1.470;2023-02-28T06:53:53;2.66;67.08
65584;DHT22;62116;43.582;1.470;2023-02-28T06:56:19;2.73;67.00
65584;DHT22;62116;43.582;1.470;2023-02-28T06:58:49;2.73;66.83
65584;DHT22;62116;43.582;1.470;2023-02-28T07:01:16;2.70;66.88
65584;DHT22;62116;43.582;1.470;2023-02-28T07:03:42;2.75;66.80
65584;DHT22;62116;43.582;1.470;2023-02-28T07:06:07;2.80;66.42
65584;DHT22;62116;43.582;1.470;2023-02-28T07:08:34;2.83;66.59
65584;DHT22;62116;43.582;1.470;2023-02-28T07:11:00;2.86;66.15
65584;DHT22;62116;43.582;1.470;2023-02-28T07:13:26;2.84;66.05
65584;DHT22;62116;43.582;1.470;2023-02-28T07:16:04;2.86;66.21
65584;DHT22;62116;43.582;1.470;2023-02-28T07:18:30;2.89;66.32
65584;DHT22;62116;43.582;1.470;2023-02-28T07:20:57;2.97;65.91
65584;DHT22;62116;43.582;1.470;2023-02-28T07:23:23;2.96;66.08
65584;DHT22;62116;43.582;1.470;2023-02-28T07:25:49;3.04;65.82
65584;DHT22;62116;43.582;1.470;2023-02-28T07:28:16;3.05;65.91
65584;DHT22;62116;43.582;1.470;2023-02-28T07:30:41;3.04;65.72
65584;DHT22;62116;43.582;1.470;2023-02-28T07:33:07;3.10;65.73
65584;DHT22;62116;43.582;1.470;2023-02-28T07:35:33;3.17;65.28
65584;DHT22;62116;43.582;1.470;2023-02-28T07:37:59;3.20;65.08
65584;DHT22;62116;43.582;1.470;2023-02-28T07:40:25;3.25;65.35
65584;DHT22;62116;43.582;1.470;2023-02-28T07:42:51;3.38;65.33
65584;DHT22;62116;43.582;1.470;2023-02-28T07:45:17;3.42;64.63
65584;DHT22;62116;43.582;1.470;2023-02-28T07:47:43;3.50;64.33
65584;DHT22;62116;43.582;1.470;2023-02-28T07:50:11;3.58;64.51
65584;DHT22;62116;43.582;1.470;2023-02-28T07:52:37;3.74;63.94
65584;DHT22;62116;43.582;1.470;2023-02-28T07:55:04;3.87;63.57
65584;DHT22;62116;43.582;1.470;2023-02-28T07:57:30;3.93;63.11
65584;DHT22;62116;43.582;1.470;2023-02-28T07:59:55;4.02;62.60
65584;DHT22;62116;43.582;1.470;2023-02-28T08:02:21;4.11;62.34
65584;DHT22;62116;43.582;1.470;2023-02-28T08:04:48;4.17;62.34
65584;DHT22;62116;43.582;1.470;2023-02-28T08:07:15;4.27;61.10
65584;DHT22;62116;43.582;1.470;2023-02-28T08:09:41;4.30;60.99
65584;DHT22;62116;43.582;1.470;2023-02-28T08:12:07;4.34;60.69
65584;DHT22;62116;43.582;1.470;2023-02-28T08:14:33;4.43;61.29
65584;DHT22;62116;43.582;1.470;2023-02-28T08:16:59;4.47;61.35
65584;DHT22;62116;43.582;1.470;2023-02-28T08:19:25;4.56;60.44
65584;DHT22;62116;43.582;1.470;2023-02-28T08:21:50;4.64;60.70
65584;DHT22;62116;43.582;1.470;2023-02-28T08:24:15;4.78;60.83
65584;DHT22;62116;43.582;1.470;2023-02-28T08:26:41;4.81;60.05
65584;DHT22;62116;43.582;1.470;2023-02-28T08:29:06;4.95;59.90
65584;DHT22;62116;43.582;1.470;2023-02-28T08:31:32;4.99;59.34
65584;DHT22;62116;43.582;1.470;2023-02-28T08:33:57;5.04;58.99
65584;DHT22;62116;43.582;1.470;2023-02-28T08:36:25;5.08;58.97
65584;DHT22;62116;43.582;1.470;2023-02-28T08:38:51;5.15;58.93
65584;DHT22;62116;43.582;1.470;2023-02-28T08:41:16;5.22;58.56
65584;DHT22;62116;43.582;1.470;2023-02-28T08:43:42;5.25;58.54
65584;DHT22;62116;43.582;1.470;2023-02-28T08:46:08;5.36;58.62
65584;DHT22;62116;43.582;1.470;2023-02-28T08:48:35;5.49;58.51
65584;DHT22;62116;43.582;1.470;2023-02-28T08:51:23;5.65;58.33
65584;DHT22;62116;43.582;1.470;2023-02-28T08:53:57;5.74;57.16
65584;DHT22;62116;43.582;1.470;2023-02-28T08:56:23;5.89;56.63
65584;DHT22;62116;43.582;1.470;2023-02-28T08:58:49;5.99;55.96
65584;DHT22;62116;43.582;1.470;2023-02-28T09:01:17;6.04;54.76
65584;DHT22;62116;43.582;1.470;2023-02-28T09:03:45;6.13;54.61
65584;DHT22;62116;43.582;1.470;2023-02-28T09:06:11;6.23;54.91
65584;DHT22;62116;43.582;1.470;2023-02-28T09:08:39;6.27;54.28
65584;DHT22;62116;43.582;1.470;2023-02-28T09:11:05;6.27;54.16
65584;DHT22;62116;43.582;1.470;2023-02-28T09:13:31;6.25;54.20
65584;DHT22;62116;43.582;1.470;2023-02-28T09:15:59;6.20;53.72
65584;DHT22;62116;43.582;1.470;2023-02-28T09:18:25;6.07;53.93
65584;DHT22;62116;43.582;1.470;2023-02-28T09:20:51;6.11;54.09
65584;DHT22;62116;43.582;1.470;2023-02-28T09:23:17;6.18;54.54
65584;DHT22;62116;43.582;1.470;2023-02-28T09:25:53;6.23;54.11
65584;DHT22;62116;43.582;1.470;2023-02-28T09:28:20;6.21;54.46
65584;DHT22;62116;43.582;1.470;2023-02-28T09:30:51;6.72;54.53
65584;DHT22;62116;43.582;1.470;2023-02-28T09:33:17;7.20;53.61
65584;DHT22;62116;43.582;1.470;2023-02-28T09:35:45;7.56;51.91
65584;DHT22;62116;43.582;1.470;2023-02-28T09:38:11;7.91;50.48
65584;DHT22;62116;43.582;1.470;2023-02-28T09:41:00;8.38;50.03
65584;DHT22;62116;43.582;1.470;2023-02-28T09:43:28;8.71;48.21
65584;DHT22;62116;43.582;1.470;2023-02-28T09:46:03;8.90;47.95
65584;DHT22;62116;43.582;1.470;2023-02-28T09:48:38;8.89;47.03
65584;DHT22;62116;43.582;1.470;2023-02-28T09:53:56;8.39;46.90
65584;DHT22;62116;43.582;1.470;2023-02-28T09:56:25;8.29;47.10
65584;DHT22;62116;43.582;1.470;2023-02-28T10:09:47;8.82;47.05
65584;DHT22;62116;43.582;1.470;2023-02-28T10:12:16;8.79;46.70
65584;DHT22;62116;43.582;1.470;2023-02-28T10:14:45;8.63;47.02
65584;DHT22;62116;43.582;1.470;2023-02-28T10:17:24;8.51;47.80
65584;DHT22;62116;43.582;1.470;2023-02-28T10:22:20;8.42;47.51
65584;DHT22;62116;43.582;1.470;2023-02-28T10:24:52;8.37;47.24
65584;DHT22;62116;43.582;1.470;2023-02-28T10:27:21;8.20;47.16
65584;DHT22;62116;43.582;1.470;2023-02-28T10:29:49;7.97;47.61
65584;DHT22;62116;43.582;1.470;2023-02-28T10:32:21;7.81;48.13
65584;DHT22;62116;43.582;1.470;2023-02-28T10:34:53;7.73;48.86
65584;DHT22;62116;43.582;1.470;2023-02-28T10:37:20;7.57;48.89
65584;DHT22;62116;43.582;1.470;2023-02-28T10:39:46;7.56;49.02
65584;DHT22;62116;43.582;1.470;2023-02-28T10:42:26;7.50;49.60
65584;DHT22;62116;43.582;1.470;2023-02-28T10:45:06;7.49;50.51
65584;DHT22;62116;43.582;1.470;2023-02-28T10:47:34;7.46;50.06
65584;DHT22;62116;43.582;1.470;2023-02-28T10:49:59;7.43;49.77
65584;DHT22;62116;43.582;1.470;2023-02-28T10:52:39;7.37;49.94
65584;DHT22;62116;43.582;1.470;2023-02-28T10:55:25;7.33;49.79
65584;DHT22;62116;43.582;1.470;2023-02-28T10:57:51;7.27;49.14
65584;DHT22;62116;43.582;1.470;2023-02-28T11:00:21;7.18;49.65
65584;DHT22;62116;43.582;1.470;2023-02-28T11:02:47;7.12;49.77
65584;DHT22;62116;43.582;1.470;2023-02-28T11:05:28;7.09;49.36
65584;DHT22;62116;43.582;1.470;2023-02-28T11:07:57;7.00;49.55
65584;DHT22;62116;43.582;1.470;2023-02-28T11:10:26;6.95;50.74
65584;DHT22;62116;43.582;1.470;2023-02-28T11:12:57;6.93;50.80
65584;DHT22;62116;43.582;1.470;2023-02-28T11:15:28;6.96;50.68
65584;DHT22;62116;43.582;1.470;2023-02-28T11:18:01;6.92;50.69
65584;DHT22;62116;43.582;1.470;2023-02-28T11:20:32;6.87;50.83
65584;DHT22;62116;43.582;1.470;2023-02-28T11:23:00;6.84;51.44
65584;DHT22;62116;43.582;1.470;2023-02-28T11:25:30;6.87;52.25
65584;DHT22;62116;43.582;1.470;2023-02-28T11:27:59;6.82;51.61
65584;DHT22;62116;43.582;1.470;2023-02-28T11:30:40;6.85;51.68
65584;DHT22;62116;43.582;1.470;2023-02-28T11:36:13;6.93;51.93
65584;DHT22;62116;43.582;1.470;2023-02-28T11:38:39;6.92;51.32
65584;DHT22;62116;43.582;1.470;2023-02-28T11:46:39;6.89;51.24
65584;DHT22;62116;43.582;1.470;2023-02-28T11:52:06;7.02;49.81
65584;DHT22;62116;43.582;1.470;2023-02-28T12:27:15;8.05;45.33
65584;DHT22;62116;43.582;1.470;2023-02-28T12:29:58;7.93;45.16
65584;DHT22;62116;43.582;1.470;2023-02-28T12:32:32;7.84;45.27
65584;DHT22;62116;43.582;1.470;2023-02-28T12:35:21;7.70;45.75
65584;DHT22;62116;43.582;1.470;2023-02-28T12:38:02;7.63;45.26
65584;DHT22;62116;43.582;1.470;2023-02-28T12:40:41;7.66;46.22
65584;DHT22;62116;43.582;1.470;2023-02-28T12:43:09;7.62;45.95
65584;DHT22;62116;43.582;1.470;2023-02-28T12:48:44;7.53;45.81
65584;DHT22;62116;43.582;1.470;2023-02-28T12:51:12;7.49;45.53
65584;DHT22;62116;43.582;1.470;2023-02-28T12:54:21;7.53;45.54
65584;DHT22;62116;43.582;1.470;2023-02-28T12:59:59;7.50;44.86
65584;DHT22;62116;43.582;1.470;2023-02-28T13:05:06;7.42;45.28
65584;DHT22;62116;43.582;1.470;2023-02-28T13:07:56;7.42;45.48
65584;DHT22;62116;43.582;1.470;2023-02-28T13:10:24;7.37;45.54
65584;DHT22;62116;43.582;1.470;2023-02-28T13:13:03;7.47;46.21
65584;DHT22;62116;43.582;1.470;2023-02-28T13:15:29;7.46;45.00
65584;DHT22;62116;43.582;1.470;2023-02-28T13:18:03;7.43;44.79
65584;DHT22;62116;43.582;1.470;2023-02-28T13:20:34;7.52;45.24
65584;DHT22;62116;43.582;1.470;2023-02-28T13:23:00;7.43;44.71
65584;DHT22;62116;43.582;1.470;2023-02-28T13:27:58;7.39;44.93
65584;DHT22;62116;43.582;1.470;2023-02-28T13:36:07;7.36;44.64
65584;DHT22;62116;43.582;1.470;2023-02-28T13:38:48;7.43;44.65
65584;DHT22;62116;43.582;1.470;2023-02-28T13:44:21;7.39;43.91
65584;DHT22;62116;43.582;1.470;2023-02-28T14:00:28;7.73;42.43
65584;DHT22;62116;43.582;1.470;2023-02-28T14:03:11;7.63;40.45
65584;DHT22;62116;43.582;1.470;2023-02-28T14:05:38;7.66;41.04
65584;DHT22;62116;43.582;1.470;2023-02-28T14:08:21;7.70;41.02
65584;DHT22;62116;43.582;1.470;2023-02-28T14:10:52;7.70;41.54
65584;DHT22;62116;43.582;1.470;2023-02-28T14:16:00;7.64;40.46
65584;DHT22;62116;43.582;1.470;2023-02-28T14:18:35;7.59;40.76
65584;DHT22;62116;43.582;1.470;2023-02-28T14:23:51;7.54;41.21
65584;DHT22;62116;43.582;1.470;2023-02-28T14:37:33;7.46;43.22
65584;DHT22;62116;43.582;1.470;2023-02-28T14:40:02;7.37;43.28
65584;DHT22;62116;43.582;1.470;2023-02-28T14:42:34;7.36;43.51
65584;DHT22;62116;43.582;1.470;2023-02-28T14:45:01;7.40;44.23
65584;DHT22;62116;43.582;1.470;2023-02-28T14:47:32;7.37;43.33
65584;DHT22;62116;43.582;1.470;2023-02-28T14:49:59;7.39;43.47
65584;DHT22;62116;43.582;1.470;2023-02-28T14:52:27;7.33;42.63
65584;DHT22;62116;43.582;1.470;2023-02-28T14:54:58;7.34;43.00
65584;DHT22;62116;43.582;1.470;2023-02-28T14:57:30;7.39;42.91
65584;DHT22;62116;43.582;1.470;2023-02-28T15:00:01;7.42;43.12
65584;DHT22;62116;43.582;1.470;2023-02-28T15:02:34;7.46;42.99
65584;DHT22;62116;43.582;1.470;2023-02-28T15:07:38;7.52;42.18
65584;DHT22;62116;43.582;1.470;2023-02-28T15:10:22;7.47;41.18
65584;DHT22;62116;43.582;1.470;2023-02-28T15:13:07;7.42;41.49
65584;DHT22;62116;43.582;1.470;2023-02-28T15:18:31;7.36;41.95
65584;DHT22;62116;43.582;1.470;2023-02-28T15:21:06;7.36;41.95
65584;DHT22;62116;43.582;1.470;2023-02-28T15:23:34;7.36;41.60
65584;DHT22;62116;43.582;1.470;2023-02-28T15:26:01;7.36;41.85
65584;DHT22;62116;43.582;1.470;2023-02-28T15:28:27;7.33;42.01
65584;DHT22;62116;43.582;1.470;2023-02-28T15:31:02;7.27;42.25
65584;DHT22;62116;43.582;1.470;2023-02-28T15:33:32;7.29;41.59
65584;DHT22;62116;43.582;1.470;2023-02-28T15:36:14;7.32;41.65
65584;DHT22;62116;43.582;1.470;2023-02-28T15:38:43;7.33;41.71
65584;DHT22;62116;43.582;1.470;2023-02-28T15:41:27;7.27;41.67
65584;DHT22;62116;43.582;1.470;2023-02-28T15:44:17;7.27;41.87
65584;DHT22;62116;43.582;1.470;2023-02-28T15:47:44;7.33;42.08
65584;DHT22;62116;43.582;1.470;2023-02-28T15:49:44;7.27;41.37
65584;DHT22;62116;43.582;1.470;2023-02-28T15:52:14;7.29;41.31
65584;DHT22;62116;43.582;1.470;2023-02-28T15:54:41;7.23;41.24
65584;DHT22;62116;43.582;1.470;2023-02-28T15:57:13;7.20;41.24
65584;DHT22;62116;43.582;1.470;2023-02-28T15:59:49;7.19;41.31
65584;DHT22;62116;43.582;1.470;2023-02-28T16:02:18;7.24;42.00
65584;DHT22;62116;43.582;1.470;2023-02-28T16:05:20;7.16;41.70
65584;DHT22;62116;43.582;1.470;2023-02-28T16:07:53;7.16;42.03
65584;DHT22;62116;43.582;1.470;2023-02-28T16:10:24;7.18;41.65
65584;DHT22;62116;43.582;1.470;2023-02-28T16:12:52;7.16;41.15
65584;DHT22;62116;43.582;1.470;2023-02-28T16:15:22;7.15;41.77
65584;DHT22;62116;43.582;1.470;2023-02-28T16:17:48;7.16;42.02
65584;DHT22;62116;43.582;1.470;2023-02-28T16:20:15;7.16;41.77
65584;DHT22;62116;43.582;1.470;2023-02-28T16:22:41;7.15;41.44
65584;DHT22;62116;43.582;1.470;2023-02-28T16:25:11;7.10;41.42
65584;DHT22;62116;43.582;1.470;2023-02-28T16:27:37;7.12;41.33
65584;DHT22;62116;43.582;1.470;2023-02-28T16:30:07;7.02;41.51
65584;DHT22;62116;43.582;1.470;2023-02-28T16:32:36;7.03;42.04
65584;DHT22;62116;43.582;1.470;2023-02-28T16:35:02;7.03;42.39
65584;DHT22;62116;43.582;1.470;2023-02-28T16:37:28;7.02;42.31
65584;DHT22;62116;43.582;1.470;2023-02-28T16:39:53;7.00;42.44
65584;DHT22;62116;43.582;1.470;2023-02-28T16:42:25;6.99;42.03
65584;DHT22;62116;43.582;1.470;2023-02-28T16:44:52;6.93;41.91
65584;DHT22;62116;43.582;1.470;2023-02-28T16:47:18;6.91;42.27
65584;DHT22;62116;43.582;1.470;2023-02-28T16:49:44;6.89;42.16
65584;DHT22;62116;43.582;1.470;2023-02-28T16:52:10;6.88;42.30
65584;DHT22;62116;43.582;1.470;2023-02-28T16:54:37;6.87;42.16
65584;DHT22;62116;43.582;1.470;2023-02-28T16:57:04;6.81;42.11
65584;DHT22;62116;43.582;1.470;2023-02-28T16:59:30;6.77;42.11
65584;DHT22;62116;43.582;1.470;2023-02-28T17:01:56;6.79;42.33
65584;DHT22;62116;43.582;1.470;2023-02-28T17:04:25;6.77;42.51
65584;DHT22;62116;43.582;1.470;2023-02-28T17:06:50;6.78;42.57
65584;DHT22;62116;43.582;1.470;2023-02-28T17:09:21;6.78;42.87
65584;DHT22;62116;43.582;1.470;2023-02-28T17:11:47;6.75;43.22
65584;DHT22;62116;43.582;1.470;2023-02-28T17:14:13;6.74;43.41
65584;DHT22;62116;43.582;1.470;2023-02-28T17:16:39;6.74;43.36
65584;DHT22;62116;43.582;1.470;2023-02-28T17:19:06;6.74;43.52
65584;DHT22;62116;43.582;1.470;2023-02-28T17:21:32;6.69;43.62
65584;DHT22;62116;43.582;1.470;2023-02-28T17:23:59;6.67;43.66
65584;DHT22;62116;43.582;1.470;2023-02-28T17:26:26;6.65;43.85
65584;DHT22;62116;43.582;1.470;2023-02-28T17:28:54;6.67;43.76
65584;DHT22;62116;43.582;1.470;2023-02-28T17:31:21;6.65;43.65
65584;DHT22;62116;43.582;1.470;2023-02-28T17:33:47;6.67;43.80
65584;DHT22;62116;43.582;1.470;2023-02-28T17:36:20;6.65;43.46
65584;DHT22;62116;43.582;1.470;2023-02-28T17:38:47;6.59;43.38
65584;DHT22;62116;43.582;1.470;2023-02-28T17:41:13;6.57;43.36
65584;DHT22;62116;43.582;1.470;2023-02-28T17:43:39;6.57;43.21
65584;DHT22;62116;43.582;1.470;2023-02-28T17:46:04;6.58;43.37
65584;DHT22;62116;43.582;1.470;2023-02-28T17:48:31;6.54;43.37
65584;DHT22;62116;43.582;1.470;2023-02-28T17:50:57;6.52;43.90
65584;DHT22;62116;43.582;1.470;2023-02-28T17:53:23;6.51;44.02
65584;DHT22;62116;43.582;1.470;2023-02-28T17:55:51;6.51;43.58
65584;DHT22;62116;43.582;1.470;2023-02-28T17:58:16;6.45;43.68
65584;DHT22;62116;43.582;1.470;2023-02-28T18:00:44;6.47;44.09
65584;DHT22;62116;43.582;1.470;2023-02-28T18:03:09;6.45;43.65
65584;DHT22;62116;43.582;1.470;2023-02-28T18:05:36;6.42;43.64
65584;DHT22;62116;43.582;1.470;2023-02-28T18:08:02;6.41;43.84
65584;DHT22;62116;43.582;1.470;2023-02-28T18:10:28;6.42;43.78
65584;DHT22;62116;43.582;1.470;2023-02-28T18:12:53;6.42;43.85
65584;DHT22;62116;43.582;1.470;2023-02-28T18:15:20;6.41;43.74